createdAt,value
2024-02-18T00:01:41.654Z,11.27
2024-02-18T00:04:08.443Z,8.80
2024-02-18T00:06:35.429Z,9.73
2024-02-18T00:09:02.133Z,11.02
2024-02-18T00:11:28.734Z,11.05
2024-02-18T00:13:55.441Z,12.73
2024-02-18T00:16:24.500Z,10.38
2024-02-18T00:18:51.171Z,10.50
2024-02-18T00:21:19.396Z,11.93
2024-02-18T00:23:46.408Z,11.77
2024-02-18T00:26:14.651Z,10.80
2024-02-18T00:28:41.191Z,9.32
2024-02-18T00:31:07.809Z,10.73
2024-02-18T00:33:34.520Z,8.95
2024-02-18T00:36:01.211Z,10.05
2024-02-18T00:38:28.801Z,15.93
2024-02-18T00:40:55.873Z,11.10
2024-02-18T00:43:22.478Z,8.95
2024-02-18T00:45:49.061Z,14.05
2024-02-18T00:48:15.789Z,10.05
2024-02-18T00:50:42.448Z,12.77
2024-02-18T00:53:09.123Z,11.00
2024-02-18T00:55:35.712Z,11.05
2024-02-18T00:58:02.321Z,11.77
2024-02-18T01:00:29.078Z,7.93
2024-02-18T01:02:55.674Z,9.63
2024-02-18T01:05:22.228Z,11.18
2024-02-18T01:07:49.031Z,10.57
2024-02-18T01:10:15.676Z,18.73
2024-02-18T01:12:42.260Z,9.68
2024-02-18T01:15:09.379Z,12.82
2024-02-18T01:17:36.018Z,8.73
2024-02-18T01:20:02.790Z,10.63
2024-02-18T01:22:29.354Z,12.02
2024-02-18T01:24:55.889Z,14.50
2024-02-18T01:27:23.025Z,8.25
2024-02-18T01:29:49.634Z,11.18
2024-02-18T01:32:16.124Z,10.63
2024-02-18T01:34:42.787Z,10.00
2024-02-18T01:37:09.391Z,11.20
2024-02-18T01:39:37.723Z,10.82
2024-02-18T01:42:04.816Z,13.23
2024-02-18T01:44:34.668Z,11.25
2024-02-18T01:47:01.642Z,12.68
2024-02-18T01:49:28.698Z,13.55
2024-02-18T01:51:55.426Z,9.80
2024-02-18T01:54:22.330Z,9.35
2024-02-18T01:56:48.838Z,10.15
2024-02-18T01:59:15.334Z,8.80
2024-02-18T02:01:41.956Z,10.00
2024-02-18T02:04:08.620Z,9.90
2024-02-18T02:06:35.310Z,9.18
2024-02-18T02:09:02.009Z,11.80
2024-02-18T02:11:28.711Z,9.00
2024-02-18T02:13:55.339Z,9.90
2024-02-18T02:16:23.643Z,12.15
2024-02-18T02:18:50.242Z,9.70
2024-02-18T02:21:17.479Z,15.02
2024-02-18T02:23:44.040Z,13.75
2024-02-18T02:26:12.135Z,16.33
2024-02-18T02:28:42.597Z,12.70
2024-02-18T02:31:09.254Z,10.77
2024-02-18T02:33:35.813Z,11.20
2024-02-18T02:36:02.372Z,13.57
2024-02-18T02:38:29.040Z,8.43
2024-02-18T02:40:55.585Z,9.82
2024-02-18T02:43:22.250Z,10.27
2024-02-18T02:45:48.817Z,15.63
2024-02-18T02:48:15.385Z,8.38
2024-02-18T02:50:42.345Z,11.88
2024-02-18T02:53:08.898Z,8.05
2024-02-18T02:55:35.452Z,12.68
2024-02-18T02:58:02.217Z,7.68
2024-02-18T03:00:28.906Z,37.33
2024-02-18T03:02:56.390Z,7.88
2024-02-18T03:05:22.968Z,9.75
2024-02-18T03:07:49.546Z,15.10
2024-02-18T03:10:16.309Z,11.90
2024-02-18T03:12:43.018Z,12.77
2024-02-18T03:15:09.804Z,9.90
2024-02-18T03:17:36.862Z,13.32
2024-02-18T03:20:06.310Z,14.52
2024-02-18T03:22:32.954Z,11.05
2024-02-18T03:25:02.627Z,11.35
2024-02-18T03:27:29.398Z,12.18
2024-02-18T03:29:55.980Z,11.95
2024-02-18T03:32:22.826Z,9.80
2024-02-18T03:34:49.462Z,12.43
2024-02-18T03:37:16.028Z,8.13
2024-02-18T03:39:42.624Z,10.20
2024-02-18T03:42:09.222Z,11.20
2024-02-18T03:44:35.853Z,11.15
2024-02-18T03:47:02.739Z,8.82
2024-02-18T03:49:30.320Z,14.98
2024-02-18T03:51:57.155Z,10.65
2024-02-18T03:54:23.895Z,11.52
2024-02-18T03:56:51.008Z,8.20
2024-02-18T03:59:17.813Z,7.50
2024-02-18T04:01:44.483Z,6.70
2024-02-18T04:04:11.218Z,7.88
2024-02-18T04:06:38.001Z,8.30
2024-02-18T04:09:04.567Z,6.65
2024-02-18T04:11:31.254Z,8.63
2024-02-18T04:13:58.118Z,8.90
2024-02-18T04:16:26.193Z,8.07
2024-02-18T04:18:54.717Z,6.55
2024-02-18T04:21:21.262Z,5.75
2024-02-18T04:23:47.796Z,6.72
2024-02-18T04:26:14.557Z,7.55
2024-02-18T04:28:41.419Z,11.32
2024-02-18T04:31:08.016Z,12.27
2024-02-18T04:33:34.918Z,21.05
2024-02-18T04:36:01.484Z,12.20
2024-02-18T04:38:28.725Z,5.97
2024-02-18T04:40:55.270Z,6.50
2024-02-18T04:43:21.776Z,10.95
2024-02-18T04:45:48.727Z,12.82
2024-02-18T04:48:16.175Z,11.82
2024-02-18T04:50:42.905Z,14.20
2024-02-18T04:53:09.642Z,13.70
2024-02-18T04:55:36.125Z,118.80
2024-02-18T04:58:02.694Z,15.07
2024-02-18T05:00:29.248Z,14.88
2024-02-18T05:02:55.856Z,14.45
2024-02-18T05:05:22.529Z,84.38
2024-02-18T05:07:49.095Z,9.85
2024-02-18T05:10:15.723Z,9.98
2024-02-18T05:12:42.313Z,9.85
2024-02-18T05:15:09.249Z,11.75
2024-02-18T05:17:35.820Z,7.38
2024-02-18T05:20:03.137Z,8.77
2024-02-18T05:22:29.724Z,6.35
2024-02-18T05:24:56.269Z,7.95
2024-02-18T05:27:22.869Z,7.72
2024-02-18T05:29:49.401Z,7.15
2024-02-18T05:32:15.903Z,6.97
2024-02-18T05:34:42.626Z,7.32
2024-02-18T05:37:09.291Z,12.40
2024-02-18T05:39:36.203Z,9.65
2024-02-18T05:42:02.733Z,14.75
2024-02-18T05:44:29.294Z,24.55
2024-02-18T05:46:55.811Z,47.20
2024-02-18T05:49:22.756Z,50.35
2024-02-18T05:52:06.356Z,25.23
2024-02-18T05:54:33.027Z,48.78
2024-02-18T05:56:59.527Z,43.58
2024-02-18T05:59:26.285Z,31.98
2024-02-18T06:01:52.859Z,73.88
2024-02-18T06:04:19.580Z,60.35
2024-02-18T06:06:46.195Z,71.10
2024-02-18T06:09:12.736Z,78.15
2024-02-18T06:11:40.476Z,73.57
2024-02-18T06:14:07.092Z,59.90
2024-02-18T06:16:33.631Z,46.30
2024-02-18T06:19:00.316Z,43.25
2024-02-18T06:21:26.950Z,51.97
2024-02-18T06:23:57.251Z,16.88
2024-02-18T06:26:24.698Z,25.35
2024-02-18T06:28:51.232Z,33.35
2024-02-18T06:31:18.672Z,37.55
2024-02-18T06:33:47.632Z,49.17
2024-02-18T06:36:14.364Z,39.13
2024-02-18T06:38:44.416Z,38.05
2024-02-18T06:41:11.434Z,62.83
2024-02-18T06:43:38.178Z,35.38
2024-02-18T06:46:04.999Z,42.72
2024-02-18T06:48:31.784Z,62.33
2024-02-18T06:50:58.705Z,62.55
2024-02-18T06:53:25.183Z,48.42
2024-02-18T06:55:51.715Z,151.93
2024-02-18T06:58:18.319Z,158.57
2024-02-18T07:00:45.013Z,100.43
2024-02-18T07:03:11.692Z,119.45
2024-02-18T07:05:38.221Z,118.55
2024-02-18T07:08:06.370Z,73.97
2024-02-18T07:10:32.885Z,61.97
2024-02-18T07:12:59.470Z,34.22
2024-02-18T07:15:26.121Z,30.13
2024-02-18T07:17:52.695Z,37.45
2024-02-18T07:20:19.354Z,41.67
2024-02-18T07:22:45.858Z,33.13
2024-02-18T07:25:14.471Z,22.13
2024-02-18T07:27:41.065Z,80.65
2024-02-18T07:30:08.322Z,27.63
2024-02-18T07:32:34.960Z,45.22
2024-02-18T07:35:01.561Z,48.67
2024-02-18T07:37:28.111Z,63.13
2024-02-18T07:39:54.644Z,47.03
2024-02-18T07:42:21.494Z,18.33
2024-02-18T07:44:48.077Z,18.55
2024-02-18T07:47:14.633Z,12.25
2024-02-18T07:49:41.225Z,16.67
2024-02-18T07:52:08.042Z,28.98
2024-02-18T07:54:34.660Z,18.67
2024-02-18T07:57:01.737Z,23.77
2024-02-18T07:59:28.325Z,17.75
2024-02-18T08:01:55.004Z,7.88
2024-02-18T08:04:21.655Z,12.50
2024-02-18T08:06:49.740Z,10.52
2024-02-18T08:09:16.892Z,11.60
2024-02-18T08:11:44.644Z,18.92
2024-02-18T08:14:11.245Z,6.60
2024-02-18T08:16:37.826Z,8.07
2024-02-18T08:19:04.525Z,5.72
2024-02-18T08:21:31.303Z,7.95
2024-02-18T08:23:58.129Z,5.57
2024-02-18T08:26:26.064Z,7.47
2024-02-18T08:28:53.028Z,9.68
2024-02-18T08:31:19.681Z,8.20
2024-02-18T08:33:46.864Z,8.18
2024-02-18T08:36:13.678Z,7.50
2024-02-18T08:38:40.402Z,7.95
2024-02-18T08:41:06.998Z,9.45
2024-02-18T08:43:35.011Z,8.43
2024-02-18T08:46:01.507Z,8.35
2024-02-18T08:48:29.547Z,11.35
2024-02-18T08:50:56.173Z,9.98
2024-02-18T08:53:23.001Z,9.25
2024-02-18T08:55:49.587Z,11.32
2024-02-18T08:58:16.138Z,8.25
2024-02-18T09:00:45.349Z,9.88
2024-02-18T09:03:11.964Z,13.98
2024-02-18T09:05:40.268Z,10.95
2024-02-18T09:08:08.077Z,12.48
2024-02-18T09:10:35.303Z,8.85
2024-02-18T09:13:04.480Z,11.27
2024-02-18T09:15:32.232Z,9.80
2024-02-18T09:17:58.914Z,7.10
2024-02-18T09:20:26.250Z,7.53
2024-02-18T09:22:53.106Z,6.18
2024-02-18T09:25:19.650Z,7.20
2024-02-18T09:27:46.352Z,9.93
2024-02-18T09:30:13.604Z,8.07
2024-02-18T09:32:41.011Z,8.68
2024-02-18T09:35:08.632Z,7.90
2024-02-18T09:37:37.441Z,9.80
2024-02-18T09:40:05.306Z,9.48
2024-02-18T09:42:35.647Z,6.35
2024-02-18T09:45:03.515Z,8.20
2024-02-18T09:47:30.817Z,11.43
2024-02-18T09:49:58.353Z,9.90
2024-02-18T09:52:25.501Z,9.93
2024-02-18T09:54:53.761Z,10.75
2024-02-18T09:57:20.283Z,13.68
2024-02-18T09:59:46.778Z,12.55
2024-02-18T10:02:13.382Z,11.60
2024-02-18T10:04:40.060Z,16.58
2024-02-18T10:07:06.810Z,11.13
2024-02-18T10:09:33.593Z,10.43
2024-02-18T10:12:00.223Z,14.10
2024-02-18T10:14:26.896Z,14.23
2024-02-18T10:16:53.558Z,10.60
2024-02-18T10:19:25.551Z,11.48
2024-02-18T10:21:52.482Z,12.38
2024-02-18T10:24:20.802Z,15.73
2024-02-18T10:26:47.400Z,10.38
2024-02-18T10:29:16.424Z,12.98
2024-02-18T10:31:43.059Z,10.40
2024-02-18T10:34:09.718Z,12.07
2024-02-18T10:36:37.795Z,10.10
2024-02-18T10:39:05.161Z,10.88
2024-02-18T10:41:36.982Z,8.80
2024-02-18T10:44:07.418Z,9.25
2024-02-18T10:46:34.008Z,9.18
2024-02-18T10:49:02.175Z,9.65
2024-02-18T10:51:37.326Z,8.95
2024-02-18T10:54:17.795Z,8.68
2024-02-18T10:56:44.386Z,10.82
2024-02-18T10:59:33.406Z,9.65
2024-02-18T11:02:02.763Z,9.55
2024-02-18T11:04:29.652Z,9.40
2024-02-18T11:06:56.581Z,10.40
2024-02-18T11:09:23.678Z,10.20
2024-02-18T11:11:52.016Z,12.68
2024-02-18T11:14:18.584Z,9.10
2024-02-18T11:16:46.557Z,11.38
2024-02-18T11:19:13.964Z,9.88
2024-02-18T11:21:41.599Z,10.50
2024-02-18T11:24:09.013Z,10.00
2024-02-18T11:26:35.508Z,9.32
2024-02-18T11:29:03.103Z,11.10
2024-02-18T11:31:30.455Z,10.07
2024-02-18T11:33:57.895Z,11.07
2024-02-18T11:36:25.587Z,9.68
2024-02-18T11:38:53.931Z,10.15
2024-02-18T11:41:25.860Z,8.43
2024-02-18T11:43:54.052Z,10.35
2024-02-18T11:46:24.841Z,9.25
2024-02-18T11:48:51.915Z,10.45
2024-02-18T11:51:18.692Z,9.55
2024-02-18T11:53:45.327Z,11.05
2024-02-18T11:56:13.473Z,10.55
2024-02-18T11:58:40.689Z,10.40
2024-02-18T12:01:07.421Z,8.75
2024-02-18T12:03:34.429Z,9.80
2024-02-18T12:06:02.037Z,7.72
2024-02-18T12:08:29.402Z,8.73
2024-02-18T12:10:55.996Z,8.02
2024-02-18T12:13:24.689Z,8.23
2024-02-18T12:15:51.961Z,8.02
2024-02-18T12:18:19.056Z,7.03
2024-02-18T12:20:48.886Z,7.95
2024-02-18T12:23:18.528Z,7.65
2024-02-18T12:25:45.969Z,8.27
2024-02-18T12:28:12.754Z,7.25
2024-02-18T12:30:39.368Z,7.80
2024-02-18T12:33:06.257Z,8.65
2024-02-18T12:35:34.785Z,7.60
2024-02-18T12:38:03.207Z,9.10
2024-02-18T12:40:30.147Z,9.43
2024-02-18T12:43:25.035Z,8.63
2024-02-18T12:45:50.601Z,6.78
2024-02-18T12:48:21.543Z,9.48
2024-02-18T12:50:57.150Z,6.85
2024-02-18T12:53:23.775Z,7.55
2024-02-18T12:55:50.590Z,7.07
2024-02-18T12:58:17.154Z,8.35
2024-02-18T13:00:43.719Z,6.13
2024-02-18T13:03:18.977Z,6.28
2024-02-18T13:05:46.479Z,6.65
2024-02-18T13:08:13.340Z,6.22
2024-02-18T13:10:40.574Z,6.57
2024-02-18T13:13:09.646Z,5.55
2024-02-18T13:15:36.445Z,5.00
2024-02-18T13:18:03.348Z,6.32
2024-02-18T13:20:31.842Z,6.30
2024-02-18T13:22:58.338Z,3.95
2024-02-18T13:25:24.974Z,3.97
2024-02-18T13:27:51.598Z,3.33
2024-02-18T13:30:21.125Z,2.97
2024-02-18T13:32:49.753Z,2.70
2024-02-18T13:35:16.587Z,2.20
2024-02-18T13:37:43.178Z,2.30
2024-02-18T13:40:10.267Z,1.60
2024-02-18T13:42:36.948Z,0.57
2024-02-18T13:45:04.800Z,1.23
2024-02-18T13:47:31.356Z,1.10
2024-02-18T13:49:59.609Z,1.50
2024-02-18T13:52:27.291Z,2.88
2024-02-18T13:54:53.989Z,2.13
2024-02-18T13:57:20.777Z,1.95
2024-02-18T13:59:47.342Z,2.88
2024-02-18T14:02:13.835Z,1.77
2024-02-18T14:04:40.356Z,2.28
2024-02-18T14:07:08.327Z,2.25
2024-02-18T14:09:35.251Z,1.90
2024-02-18T14:12:05.318Z,2.22
2024-02-18T14:16:59.890Z,2.17
2024-02-18T14:19:26.555Z,2.35
2024-02-18T14:21:53.328Z,2.65
2024-02-18T14:24:21.325Z,1.08
2024-02-18T14:26:47.916Z,1.17
2024-02-18T14:29:14.474Z,1.20
2024-02-18T14:31:40.948Z,4.25
2024-02-18T14:34:07.838Z,3.50
2024-02-18T14:36:34.594Z,1.38
2024-02-18T14:39:01.154Z,1.38
2024-02-18T14:41:27.752Z,1.10
2024-02-18T14:43:54.335Z,1.17
2024-02-18T14:46:20.866Z,3.13
2024-02-18T14:48:47.530Z,0.98
2024-02-18T14:51:15.317Z,1.50
2024-02-18T14:53:47.288Z,1.92
2024-02-18T14:56:13.915Z,1.60
2024-02-18T14:58:40.446Z,2.05
2024-02-18T15:01:09.191Z,1.70
2024-02-18T15:03:35.827Z,1.20
2024-02-18T15:06:02.743Z,2.03
2024-02-18T15:08:32.513Z,1.55
2024-02-18T15:10:59.044Z,1.42
2024-02-18T15:13:26.132Z,1.48
2024-02-18T15:15:52.914Z,2.85
2024-02-18T15:18:19.825Z,2.50
2024-02-18T15:20:46.576Z,4.07
2024-02-18T15:23:13.081Z,2.70
2024-02-18T15:25:39.588Z,2.28
2024-02-18T15:28:06.443Z,1.77
2024-02-18T15:30:33.019Z,2.53
2024-02-18T15:32:59.614Z,1.75
2024-02-18T15:35:28.676Z,1.63
2024-02-18T15:37:55.190Z,1.80
2024-02-18T15:40:23.034Z,3.45
2024-02-18T15:42:50.691Z,2.70
2024-02-18T15:45:17.307Z,1.98
2024-02-18T15:47:44.213Z,1.90
2024-02-18T15:50:11.220Z,3.35
2024-02-18T15:52:37.739Z,4.68
2024-02-18T15:55:04.551Z,4.53
2024-02-18T15:57:31.143Z,2.83
2024-02-18T15:59:57.819Z,2.00
2024-02-18T16:02:24.495Z,7.38
2024-02-18T16:04:53.552Z,1.83
2024-02-18T16:07:20.198Z,1.88
2024-02-18T16:09:49.035Z,8.07
2024-02-18T16:12:15.623Z,5.63
2024-02-18T16:14:42.209Z,5.82
2024-02-18T16:17:08.722Z,9.93
2024-02-18T16:19:35.437Z,3.67
2024-02-18T16:22:02.157Z,2.80
2024-02-18T16:24:28.985Z,8.07
2024-02-18T16:26:55.542Z,11.40
2024-02-18T16:29:24.348Z,10.68
2024-02-18T16:31:51.138Z,6.80
2024-02-18T16:34:17.984Z,5.68
2024-02-18T16:36:44.848Z,6.45
2024-02-18T16:39:14.580Z,12.48
2024-02-18T16:41:41.956Z,9.15
2024-02-18T16:44:08.466Z,9.90
2024-02-18T16:46:39.510Z,11.48
2024-02-18T16:49:06.373Z,12.43
2024-02-18T16:51:35.360Z,11.50
2024-02-18T16:54:01.950Z,9.63
2024-02-18T16:56:28.767Z,7.72
2024-02-18T16:58:55.300Z,7.05
2024-02-18T17:01:21.932Z,4.40
2024-02-18T17:03:48.772Z,7.65
2024-02-18T17:06:15.945Z,4.68
2024-02-18T17:08:42.736Z,5.88
2024-02-18T17:11:09.316Z,6.43
2024-02-18T17:13:35.979Z,5.65
2024-02-18T17:16:02.528Z,7.13
2024-02-18T17:18:29.727Z,10.23
2024-02-18T17:20:56.476Z,9.65
2024-02-18T17:23:22.978Z,7.80
2024-02-18T17:25:49.583Z,9.15
2024-02-18T17:28:16.226Z,12.02
2024-02-18T17:30:42.916Z,6.68
2024-02-18T17:33:09.546Z,7.88
2024-02-18T17:35:39.279Z,6.72
2024-02-18T17:38:05.824Z,9.43
2024-02-18T17:40:32.333Z,9.48
2024-02-18T17:42:58.953Z,7.00
2024-02-18T17:45:25.490Z,6.45
2024-02-18T17:47:52.191Z,6.60
2024-02-18T17:50:19.283Z,8.15
2024-02-18T17:52:45.838Z,7.43
2024-02-18T17:55:12.558Z,9.05
2024-02-18T17:57:41.031Z,7.65
2024-02-18T18:00:10.705Z,10.60
2024-02-18T18:02:39.467Z,7.40
2024-02-18T18:05:06.651Z,10.10
2024-02-18T18:07:34.048Z,11.52
2024-02-18T18:10:00.995Z,10.20
2024-02-18T18:12:27.614Z,11.95
2024-02-18T18:14:54.221Z,11.77
2024-02-18T18:17:21.765Z,6.05
2024-02-18T18:19:48.576Z,6.10
2024-02-18T18:22:15.240Z,4.50
2024-02-18T18:24:41.864Z,4.78
2024-02-18T18:27:08.515Z,4.00
2024-02-18T18:29:35.112Z,5.43
2024-02-18T18:32:01.692Z,5.43
2024-02-18T18:34:28.278Z,3.47
2024-02-18T18:36:54.942Z,5.28
2024-02-18T18:39:23.539Z,9.15
2024-02-18T18:41:51.996Z,5.65
2024-02-18T18:44:18.467Z,4.05
2024-02-18T18:46:44.981Z,6.05
2024-02-18T18:49:11.574Z,6.43
2024-02-18T18:51:38.147Z,5.20
2024-02-18T18:54:04.892Z,6.65
2024-02-18T18:56:31.442Z,6.70
2024-02-18T18:58:58.014Z,7.35
2024-02-18T19:01:24.603Z,7.55
2024-02-18T19:03:51.312Z,6.90
2024-02-18T19:06:17.982Z,7.53
2024-02-18T19:08:44.695Z,7.75
2024-02-18T19:11:13.707Z,8.88
2024-02-18T19:13:43.419Z,9.90
2024-02-18T19:16:17.294Z,6.60
2024-02-18T19:18:44.932Z,6.03
2024-02-18T19:21:11.509Z,8.93
2024-02-18T19:23:39.003Z,8.73
2024-02-18T19:26:09.063Z,6.15
2024-02-18T19:28:35.986Z,18.88
2024-02-18T19:31:02.496Z,24.60
2024-02-18T19:33:29.079Z,20.30
2024-02-18T19:35:55.572Z,8.50
2024-02-18T19:38:22.132Z,12.60
2024-02-18T19:40:48.638Z,16.25
2024-02-18T19:43:15.334Z,11.45
2024-02-18T19:45:41.979Z,9.20
2024-02-18T19:48:08.694Z,8.07
2024-02-18T19:50:35.220Z,11.88
2024-02-18T19:53:01.754Z,7.95
2024-02-18T19:55:28.280Z,11.00
2024-02-18T19:57:54.823Z,6.22
2024-02-18T20:00:21.369Z,8.20
2024-02-18T20:02:49.074Z,9.52
2024-02-18T20:05:16.118Z,7.88
2024-02-18T20:07:43.008Z,5.80
2024-02-18T20:10:09.928Z,6.38
2024-02-18T20:12:37.386Z,9.10
2024-02-18T20:15:05.173Z,5.68
2024-02-18T20:17:31.831Z,8.25
2024-02-18T20:19:59.833Z,8.30
2024-02-18T20:22:26.438Z,13.23
2024-02-18T20:24:53.681Z,7.07
2024-02-18T20:27:20.268Z,6.25
2024-02-18T20:29:46.778Z,8.70
2024-02-18T20:32:13.226Z,11.15
2024-02-18T20:34:43.087Z,10.13
2024-02-18T20:37:09.991Z,8.60
2024-02-18T20:39:41.548Z,6.90
2024-02-18T20:42:08.212Z,5.43
2024-02-18T20:44:34.763Z,7.10
2024-02-18T20:47:02.548Z,7.88
2024-02-18T20:49:29.865Z,5.32
2024-02-18T20:51:56.454Z,5.28
2024-02-18T20:54:22.990Z,6.22
2024-02-18T20:56:49.870Z,5.10
2024-02-18T20:59:16.386Z,4.82
2024-02-18T21:01:43.716Z,6.85
2024-02-18T21:04:10.308Z,10.93
2024-02-18T21:06:37.032Z,4.95
2024-02-18T21:09:04.866Z,5.65
2024-02-18T21:11:31.421Z,6.60
2024-02-18T21:13:58.320Z,4.32
2024-02-18T21:16:24.844Z,5.10
2024-02-18T21:18:51.531Z,5.15
2024-02-18T21:21:18.266Z,6.80
2024-02-18T21:23:44.796Z,7.63
2024-02-18T21:26:18.266Z,5.43
2024-02-18T21:28:49.754Z,5.47
2024-02-18T21:31:16.949Z,7.82
2024-02-18T21:33:43.669Z,9.68
2024-02-18T21:36:14.932Z,13.68
2024-02-18T21:38:41.799Z,9.13
2024-02-18T21:41:08.315Z,7.88
2024-02-18T21:43:34.797Z,9.88
2024-02-18T21:46:01.482Z,11.73
2024-02-18T21:48:28.104Z,10.10
2024-02-18T21:50:54.719Z,12.57
2024-02-18T21:53:21.244Z,12.18
2024-02-18T21:55:47.868Z,11.48
2024-02-18T21:58:14.533Z,12.35
2024-02-18T22:00:41.101Z,12.80
2024-02-18T22:03:07.677Z,12.05
2024-02-18T22:05:34.282Z,7.43
2024-02-18T22:08:00.990Z,8.73
2024-02-18T22:10:27.720Z,9.73
2024-02-18T22:12:54.503Z,8.40
2024-02-18T22:15:21.103Z,9.73
2024-02-18T22:17:47.782Z,10.38
2024-02-18T22:20:14.576Z,11.13
2024-02-18T22:22:41.193Z,10.10
2024-02-18T22:25:09.057Z,8.35
2024-02-18T22:27:35.989Z,8.98
2024-02-18T22:30:05.391Z,7.45
2024-02-18T22:32:31.968Z,10.25
2024-02-18T22:34:58.591Z,10.65
2024-02-18T22:37:25.715Z,10.00
2024-02-18T22:39:52.393Z,9.45
2024-02-18T22:42:18.902Z,11.50
2024-02-18T22:44:45.448Z,9.18
2024-02-18T22:47:11.942Z,8.30
2024-02-18T22:49:38.726Z,11.30
2024-02-18T22:52:05.608Z,9.15
2024-02-18T22:54:32.285Z,10.88
2024-02-18T22:56:58.807Z,12.02
2024-02-18T22:59:25.308Z,8.20
2024-02-18T23:01:52.402Z,7.95
2024-02-18T23:04:19.467Z,8.68
2024-02-18T23:06:46.074Z,5.95
2024-02-18T23:09:12.603Z,6.03
2024-02-18T23:11:39.259Z,8.10
2024-02-18T23:14:05.775Z,6.68
2024-02-18T23:16:32.278Z,6.97
2024-02-18T23:18:58.792Z,7.45
2024-02-18T23:21:25.366Z,6.65
2024-02-18T23:23:51.934Z,5.68
2024-02-18T23:26:18.574Z,5.75
2024-02-18T23:28:45.054Z,5.88
2024-02-18T23:31:12.320Z,8.75
2024-02-18T23:33:38.985Z,7.00
2024-02-18T23:36:06.262Z,10.52
2024-02-18T23:38:32.809Z,6.75
2024-02-18T23:41:00.651Z,8.75
2024-02-18T23:43:38.019Z,8.38
2024-02-18T23:46:06.114Z,7.57
2024-02-18T23:48:34.272Z,6.97
2024-02-18T23:51:01.689Z,6.75
2024-02-18T23:53:28.292Z,10.18
2024-02-18T23:55:55.266Z,10.73
2024-02-18T23:58:22.107Z,6.68
